sensor_id;sensor_type;location;lat;lon;timestamp;temperature;humidity
54260;DHT22;40172;53.022;7.012;2022-12-18T00:01:20;-4.10;99.90
54260;DHT22;40172;53.022;7.012;2022-12-18T00:03:46;-4.10;99.90
54260;DHT22;40172;53.022;7.012;2022-12-18T00:06:11;-4.10;99.90
54260;DHT22;40172;53.022;7.012;2022-12-18T00:08:37;-4.20;99.90
54260;DHT22;40172;53.022;7.012;2022-12-18T00:11:08;-4.10;99.90
54260;DHT22;40172;53.022;7.012;2022-12-18T00:13:36;-4.10;99.90
54260;DHT22;40172;53.022;7.012;2022-12-18T00:16:07;-4.10;99.90
54260;DHT22;40172;53.022;7.012;2022-12-18T00:18:33;-4.20;99.90
54260;DHT22;40172;53.022;7.012;2022-12-18T00:21:01;-4.20;99.90
54260;DHT22;40172;53.022;7.012;2022-12-18T00:23:27;-4.20;99.90
54260;DHT22;40172;53.022;7.012;2022-12-18T00:25:53;-4.20;99.90
54260;DHT22;40172;53.022;7.012;2022-12-18T00:28:19;-4.20;99.90
54260;DHT22;40172;53.022;7.012;2022-12-18T00:30:44;-4.20;99.90
54260;DHT22;40172;53.022;7.012;2022-12-18T00:33:10;-4.20;99.90
54260;DHT22;40172;53.022;7.012;2022-12-18T00:35:35;-4.20;99.90
54260;DHT22;40172;53.022;7.012;2022-12-18T00:38:01;-4.20;99.90
54260;DHT22;40172;53.022;7.012;2022-12-18T00:40:27;-4.20;99.90
54260;DHT22;40172;53.022;7.012;2022-12-18T00:42:52;-4.10;99.90
54260;DHT22;40172;53.022;7.012;2022-12-18T00:45:22;-4.30;99.90
54260;DHT22;40172;53.022;7.012;2022-12-18T00:47:47;-4.30;99.90
54260;DHT22;40172;53.022;7.012;2022-12-18T00:50:13;-4.20;99.90
54260;DHT22;40172;53.022;7.012;2022-12-18T00:52:38;-4.30;99.90
54260;DHT22;40172;53.022;7.012;2022-12-18T00:55:04;-4.30;99.90
54260;DHT22;40172;53.022;7.012;2022-12-18T00:57:30;-4.30;99.90
54260;DHT22;40172;53.022;7.012;2022-12-18T00:59:55;-4.50;99.90
54260;DHT22;40172;53.022;7.012;2022-12-18T01:02:21;-4.50;99.90
54260;DHT22;40172;53.022;7.012;2022-12-18T01:04:46;-4.40;99.90
54260;DHT22;40172;53.022;7.012;2022-12-18T01:07:12;-4.40;99.90
54260;DHT22;40172;53.022;7.012;2022-12-18T01:09:37;-4.40;99.90
54260;DHT22;40172;53.022;7.012;2022-12-18T01:12:03;-4.40;99.90
54260;DHT22;40172;53.022;7.012;2022-12-18T01:14:29;-4.40;99.90
54260;DHT22;40172;53.022;7.012;2022-12-18T01:16:55;-4.40;99.90
54260;DHT22;40172;53.022;7.012;2022-12-18T01:19:20;-4.30;99.90
54260;DHT22;40172;53.022;7.012;2022-12-18T01:21:46;-4.50;99.90
54260;DHT22;40172;53.022;7.012;2022-12-18T01:24:11;-4.40;99.90
54260;DHT22;40172;53.022;7.012;2022-12-18T01:26:37;-4.50;99.90
54260;DHT22;40172;53.022;7.012;2022-12-18T01:29:03;-4.60;99.90
54260;DHT22;40172;53.022;7.012;2022-12-18T01:31:31;-4.50;99.90
54260;DHT22;40172;53.022;7.012;2022-12-18T01:33:59;-4.60;99.90
54260;DHT22;40172;53.022;7.012;2022-12-18T01:36:28;-4.80;99.90
54260;DHT22;40172;53.022;7.012;2022-12-18T01:38:54;-4.80;99.90
54260;DHT22;40172;53.022;7.012;2022-12-18T01:41:22;-4.90;99.90
54260;DHT22;40172;53.022;7.012;2022-12-18T01:43:56;-4.90;99.90
54260;DHT22;40172;53.022;7.012;2022-12-18T01:46:23;-5.10;99.90
54260;DHT22;40172;53.022;7.012;2022-12-18T01:48:53;-5.20;99.90
54260;DHT22;40172;53.022;7.012;2022-12-18T01:51:21;-5.20;99.90
54260;DHT22;40172;53.022;7.012;2022-12-18T01:53:47;-5.20;99.90
54260;DHT22;40172;53.022;7.012;2022-12-18T01:56:16;-5.20;99.90
54260;DHT22;40172;53.022;7.012;2022-12-18T02:01:24;-4.90;99.90
54260;DHT22;40172;53.022;7.012;2022-12-18T02:03:49;-5.50;99.90
54260;DHT22;40172;53.022;7.012;2022-12-18T02:06:20;-5.60;99.90
54260;DHT22;40172;53.022;7.012;2022-12-18T02:09:13;-5.60;99.90
54260;DHT22;40172;53.022;7.012;2022-12-18T02:11:59;-5.50;99.90
54260;DHT22;40172;53.022;7.012;2022-12-18T02:15:00;-5.60;99.90
54260;DHT22;40172;53.022;7.012;2022-12-18T02:17:37;-5.60;99.90
54260;DHT22;40172;53.022;7.012;2022-12-18T02:23:01;-5.60;99.90
54260;DHT22;40172;53.022;7.012;2022-12-18T02:28:21;-5.70;99.90
54260;DHT22;40172;53.022;7.012;2022-12-18T02:30:50;-5.80;99.90
54260;DHT22;40172;53.022;7.012;2022-12-18T02:33:19;-5.90;99.90
54260;DHT22;40172;53.022;7.012;2022-12-18T02:35:46;-5.90;99.90
54260;DHT22;40172;53.022;7.012;2022-12-18T02:38:13;-6.00;99.90
54260;DHT22;40172;53.022;7.012;2022-12-18T02:40:40;-6.10;99.90
54260;DHT22;40172;53.022;7.012;2022-12-18T02:43:12;-6.20;99.90
54260;DHT22;40172;53.022;7.012;2022-12-18T02:45:58;-6.10;99.90
54260;DHT22;40172;53.022;7.012;2022-12-18T02:48:30;-6.10;99.90
54260;DHT22;40172;53.022;7.012;2022-12-18T02:51:10;-6.20;99.90
54260;DHT22;40172;53.022;7.012;2022-12-18T02:53:53;-6.10;99.90
54260;DHT22;40172;53.022;7.012;2022-12-18T02:56:37;-6.30;99.90
54260;DHT22;40172;53.022;7.012;2022-12-18T02:59:17;-4.70;99.90
54260;DHT22;40172;53.022;7.012;2022-12-18T03:02:01;-6.20;99.90
54260;DHT22;40172;53.022;7.012;2022-12-18T03:04:42;-6.40;99.90
54260;DHT22;40172;53.022;7.012;2022-12-18T03:07:26;-6.50;99.90
54260;DHT22;40172;53.022;7.012;2022-12-18T03:09:53;-6.50;99.90
54260;DHT22;40172;53.022;7.012;2022-12-18T03:12:32;-6.50;99.90
54260;DHT22;40172;53.022;7.012;2022-12-18T03:15:10;-6.50;99.90
54260;DHT22;40172;53.022;7.012;2022-12-18T03:17:42;-6.50;99.90
54260;DHT22;40172;53.022;7.012;2022-12-18T03:20:13;-6.50;99.90
54260;DHT22;40172;53.022;7.012;2022-12-18T03:22:40;-6.60;99.90
54260;DHT22;40172;53.022;7.012;2022-12-18T03:25:11;-6.60;99.90
54260;DHT22;40172;53.022;7.012;2022-12-18T03:27:42;-6.60;99.90
54260;DHT22;40172;53.022;7.012;2022-12-18T03:30:12;-6.70;99.90
54260;DHT22;40172;53.022;7.012;2022-12-18T03:32:51;-6.60;99.90
54260;DHT22;40172;53.022;7.012;2022-12-18T03:35:24;-7.10;99.90
54260;DHT22;40172;53.022;7.012;2022-12-18T03:37:51;-6.70;99.90
54260;DHT22;40172;53.022;7.012;2022-12-18T03:40:19;-6.90;99.90
54260;DHT22;40172;53.022;7.012;2022-12-18T03:42:50;-6.90;99.90
54260;DHT22;40172;53.022;7.012;2022-12-18T03:45:38;-7.00;99.90
54260;DHT22;40172;53.022;7.012;2022-12-18T03:51:05;-7.00;99.90
54260;DHT22;40172;53.022;7.012;2022-12-18T03:53:51;-7.00;99.90
54260;DHT22;40172;53.022;7.012;2022-12-18T03:56:21;-7.00;99.90
54260;DHT22;40172;53.022;7.012;2022-12-18T03:58:49;-7.10;99.90
54260;DHT22;40172;53.022;7.012;2022-12-18T04:01:16;-7.20;99.90
54260;DHT22;40172;53.022;7.012;2022-12-18T04:03:43;-7.20;99.90
54260;DHT22;40172;53.022;7.012;2022-12-18T04:06:10;-7.20;99.90
54260;DHT22;40172;53.022;7.012;2022-12-18T04:08:36;-7.30;99.90
54260;DHT22;40172;53.022;7.012;2022-12-18T04:11:02;-7.20;99.90
54260;DHT22;40172;53.022;7.012;2022-12-18T04:13:32;-7.00;99.90
54260;DHT22;40172;53.022;7.012;2022-12-18T04:15:58;-7.20;99.90
54260;DHT22;40172;53.022;7.012;2022-12-18T04:18:23;-7.20;99.90
54260;DHT22;40172;53.022;7.012;2022-12-18T04:20:49;-7.20;99.90
54260;DHT22;40172;53.022;7.012;2022-12-18T04:23:15;-7.20;99.90
54260;DHT22;40172;53.022;7.012;2022-12-18T04:25:40;-6.90;99.90
54260;DHT22;40172;53.022;7.012;2022-12-18T04:28:06;-7.00;99.90
54260;DHT22;40172;53.022;7.012;2022-12-18T04:30:31;-7.00;99.90
54260;DHT22;40172;53.022;7.012;2022-12-18T04:32:57;-7.10;99.90
54260;DHT22;40172;53.022;7.012;2022-12-18T04:37:48;-7.00;99.90
54260;DHT22;40172;53.022;7.012;2022-12-18T04:40:14;-7.10;99.90
54260;DHT22;40172;53.022;7.012;2022-12-18T04:42:40;-7.00;99.90
54260;DHT22;40172;53.022;7.012;2022-12-18T04:45:06;-7.10;99.90
54260;DHT22;40172;53.022;7.012;2022-12-18T04:47:32;-7.00;99.90
54260;DHT22;40172;53.022;7.012;2022-12-18T04:49:58;-7.10;99.90
54260;DHT22;40172;53.022;7.012;2022-12-18T04:52:23;-7.10;99.90
54260;DHT22;40172;53.022;7.012;2022-12-18T04:54:49;-7.00;99.90
54260;DHT22;40172;53.022;7.012;2022-12-18T04:57:14;-7.20;99.90
54260;DHT22;40172;53.022;7.012;2022-12-18T04:59:40;-7.10;99.90
54260;DHT22;40172;53.022;7.012;2022-12-18T05:02:06;-7.30;99.90
54260;DHT22;40172;53.022;7.012;2022-12-18T05:04:32;-7.20;99.90
54260;DHT22;40172;53.022;7.012;2022-12-18T05:06:57;-7.40;99.90
54260;DHT22;40172;53.022;7.012;2022-12-18T05:09:23;-7.00;99.90
54260;DHT22;40172;53.022;7.012;2022-12-18T05:11:49;-7.30;99.90
54260;DHT22;40172;53.022;7.012;2022-12-18T05:14:14;-7.40;99.90
54260;DHT22;40172;53.022;7.012;2022-12-18T05:16:40;-7.30;99.90
54260;DHT22;40172;53.022;7.012;2022-12-18T05:19:06;-7.30;99.90
54260;DHT22;40172;53.022;7.012;2022-12-18T05:21:32;-6.80;99.90
54260;DHT22;40172;53.022;7.012;2022-12-18T05:23:58;-7.30;99.90
54260;DHT22;40172;53.022;7.012;2022-12-18T05:26:23;-7.30;99.90
54260;DHT22;40172;53.022;7.012;2022-12-18T05:28:49;-7.40;99.90
54260;DHT22;40172;53.022;7.012;2022-12-18T05:31:14;-7.40;99.90
54260;DHT22;40172;53.022;7.012;2022-12-18T05:33:40;-7.40;99.90
54260;DHT22;40172;53.022;7.012;2022-12-18T05:36:08;-7.50;99.90
54260;DHT22;40172;53.022;7.012;2022-12-18T05:38:35;-7.50;99.90
54260;DHT22;40172;53.022;7.012;2022-12-18T05:41:02;-7.50;99.90
54260;DHT22;40172;53.022;7.012;2022-12-18T05:43:28;-7.60;99.90
54260;DHT22;40172;53.022;7.012;2022-12-18T05:45:54;-7.60;99.90
54260;DHT22;40172;53.022;7.012;2022-12-18T05:48:21;-7.60;99.90
54260;DHT22;40172;53.022;7.012;2022-12-18T05:50:48;-7.60;99.90
54260;DHT22;40172;53.022;7.012;2022-12-18T05:53:16;-7.80;99.90
54260;DHT22;40172;53.022;7.012;2022-12-18T05:55:43;-7.80;99.90
54260;DHT22;40172;53.022;7.012;2022-12-18T05:58:11;-7.80;99.90
54260;DHT22;40172;53.022;7.012;2022-12-18T06:00:39;-7.80;99.90
54260;DHT22;40172;53.022;7.012;2022-12-18T06:03:06;-7.90;99.90
54260;DHT22;40172;53.022;7.012;2022-12-18T06:05:36;-7.80;99.90
54260;DHT22;40172;53.022;7.012;2022-12-18T06:08:02;-7.80;99.90
54260;DHT22;40172;53.022;7.012;2022-12-18T06:10:28;-7.70;99.90
54260;DHT22;40172;53.022;7.012;2022-12-18T06:12:53;-7.90;99.90
54260;DHT22;40172;53.022;7.012;2022-12-18T06:15:19;-7.80;99.90
54260;DHT22;40172;53.022;7.012;2022-12-18T06:17:45;-8.00;99.90
54260;DHT22;40172;53.022;7.012;2022-12-18T06:20:10;-7.90;99.90
54260;DHT22;40172;53.022;7.012;2022-12-18T06:22:36;-7.90;99.90
54260;DHT22;40172;53.022;7.012;2022-12-18T06:25:02;-8.00;99.90
54260;DHT22;40172;53.022;7.012;2022-12-18T06:27:27;-7.90;99.90
54260;DHT22;40172;53.022;7.012;2022-12-18T06:29:53;-8.00;99.90
54260;DHT22;40172;53.022;7.012;2022-12-18T06:32:18;-8.00;99.90
54260;DHT22;40172;53.022;7.012;2022-12-18T06:34:44;-8.10;99.90
54260;DHT22;40172;53.022;7.012;2022-12-18T06:37:09;-8.00;99.90
54260;DHT22;40172;53.022;7.012;2022-12-18T06:39:35;-8.00;99.90
54260;DHT22;40172;53.022;7.012;2022-12-18T06:42:00;-8.10;99.90
54260;DHT22;40172;53.022;7.012;2022-12-18T06:44:26;-8.00;99.90
54260;DHT22;40172;53.022;7.012;2022-12-18T06:46:52;-8.20;99.90
54260;DHT22;40172;53.022;7.012;2022-12-18T06:49:17;-8.10;99.90
54260;DHT22;40172;53.022;7.012;2022-12-18T06:51:43;-7.20;99.90
54260;DHT22;40172;53.022;7.012;2022-12-18T06:54:08;-8.10;99.90
54260;DHT22;40172;53.022;7.012;2022-12-18T06:56:34;-6.30;99.90
54260;DHT22;40172;53.022;7.012;2022-12-18T06:59:00;-8.10;99.90
54260;DHT22;40172;53.022;7.012;2022-12-18T07:01:26;-8.40;99.90
54260;DHT22;40172;53.022;7.012;2022-12-18T07:03:53;-8.10;99.90
54260;DHT22;40172;53.022;7.012;2022-12-18T07:06:22;-8.00;99.90
54260;DHT22;40172;53.022;7.012;2022-12-18T07:08:49;-8.00;99.90
54260;DHT22;40172;53.022;7.012;2022-12-18T07:11:15;-8.10;99.90
54260;DHT22;40172;53.022;7.012;2022-12-18T07:13:41;-8.10;99.90
54260;DHT22;40172;53.022;7.012;2022-12-18T07:16:10;-7.90;99.90
54260;DHT22;40172;53.022;7.012;2022-12-18T07:18:36;-7.90;99.90
54260;DHT22;40172;53.022;7.012;2022-12-18T07:21:07;-7.80;99.90
54260;DHT22;40172;53.022;7.012;2022-12-18T07:23:34;-7.90;99.90
54260;DHT22;40172;53.022;7.012;2022-12-18T07:26:04;-7.00;99.90
54260;DHT22;40172;53.022;7.012;2022-12-18T07:28:30;-7.90;99.90
54260;DHT22;40172;53.022;7.012;2022-12-18T07:30:56;-8.00;99.90
54260;DHT22;40172;53.022;7.012;2022-12-18T07:33:22;-7.90;99.90
54260;DHT22;40172;53.022;7.012;2022-12-18T07:35:47;-7.90;99.90
54260;DHT22;40172;53.022;7.012;2022-12-18T07:38:13;-7.90;99.90
54260;DHT22;40172;53.022;7.012;2022-12-18T07:40:38;-7.60;99.90
54260;DHT22;40172;53.022;7.012;2022-12-18T07:43:04;-7.70;99.90
54260;DHT22;40172;53.022;7.012;2022-12-18T07:45:29;-7.80;99.90
54260;DHT22;40172;53.022;7.012;2022-12-18T07:47:55;-7.70;99.90
54260;DHT22;40172;53.022;7.012;2022-12-18T07:50:20;-7.70;99.90
54260;DHT22;40172;53.022;7.012;2022-12-18T07:52:46;-7.70;99.90
54260;DHT22;40172;53.022;7.012;2022-12-18T07:55:12;-7.70;99.90
54260;DHT22;40172;53.022;7.012;2022-12-18T07:57:37;-7.70;99.90
54260;DHT22;40172;53.022;7.012;2022-12-18T08:00:03;-7.70;99.90
54260;DHT22;40172;53.022;7.012;2022-12-18T08:02:31;-7.60;99.90
54260;DHT22;40172;53.022;7.012;2022-12-18T08:04:57;-7.70;99.90
54260;DHT22;40172;53.022;7.012;2022-12-18T08:07:23;-7.60;99.90
54260;DHT22;40172;53.022;7.012;2022-12-18T08:09:49;-7.60;99.90
54260;DHT22;40172;53.022;7.012;2022-12-18T08:12:14;-7.60;99.90
54260;DHT22;40172;53.022;7.012;2022-12-18T08:14:40;-7.60;99.90
54260;DHT22;40172;53.022;7.012;2022-12-18T08:17:05;-7.50;99.90
54260;DHT22;40172;53.022;7.012;2022-12-18T08:19:31;-7.40;99.90
54260;DHT22;40172;53.022;7.012;2022-12-18T08:21:56;-7.40;99.90
54260;DHT22;40172;53.022;7.012;2022-12-18T08:24:22;-7.30;99.90
54260;DHT22;40172;53.022;7.012;2022-12-18T08:26:47;-7.20;99.90
54260;DHT22;40172;53.022;7.012;2022-12-18T08:29:13;-7.00;99.90
54260;DHT22;40172;53.022;7.012;2022-12-18T08:31:38;-7.00;99.90
54260;DHT22;40172;53.022;7.012;2022-12-18T08:34:04;-7.00;99.90
54260;DHT22;40172;53.022;7.012;2022-12-18T08:36:30;-6.90;99.90
54260;DHT22;40172;53.022;7.012;2022-12-18T08:38:56;-6.80;99.90
54260;DHT22;40172;53.022;7.012;2022-12-18T08:41:22;-6.80;99.90
54260;DHT22;40172;53.022;7.012;2022-12-18T08:43:48;-6.70;99.90
54260;DHT22;40172;53.022;7.012;2022-12-18T08:46:37;-6.70;99.90
54260;DHT22;40172;53.022;7.012;2022-12-18T08:49:04;-6.50;99.90
54260;DHT22;40172;53.022;7.012;2022-12-18T08:51:30;-6.60;99.90
54260;DHT22;40172;53.022;7.012;2022-12-18T08:53:56;-6.60;99.90
54260;DHT22;40172;53.022;7.012;2022-12-18T08:56:22;-6.30;99.90
54260;DHT22;40172;53.022;7.012;2022-12-18T08:58:50;-6.40;99.90
54260;DHT22;40172;53.022;7.012;2022-12-18T09:01:16;-6.30;99.90
54260;DHT22;40172;53.022;7.012;2022-12-18T09:03:41;-6.30;99.90
54260;DHT22;40172;53.022;7.012;2022-12-18T09:06:07;-6.30;99.90
54260;DHT22;40172;53.022;7.012;2022-12-18T09:08:36;-6.20;99.90
54260;DHT22;40172;53.022;7.012;2022-12-18T09:11:04;-6.10;99.90
54260;DHT22;40172;53.022;7.012;2022-12-18T09:13:30;-6.00;99.90
54260;DHT22;40172;53.022;7.012;2022-12-18T09:15:55;-6.00;99.90
54260;DHT22;40172;53.022;7.012;2022-12-18T09:18:23;-5.90;99.90
54260;DHT22;40172;53.022;7.012;2022-12-18T09:20:49;-5.80;99.90
54260;DHT22;40172;53.022;7.012;2022-12-18T09:23:17;-5.80;99.90
54260;DHT22;40172;53.022;7.012;2022-12-18T09:25:42;-5.60;99.90
54260;DHT22;40172;53.022;7.012;2022-12-18T09:28:13;-5.60;99.90
54260;DHT22;40172;53.022;7.012;2022-12-18T09:30:41;-5.50;99.90
54260;DHT22;40172;53.022;7.012;2022-12-18T09:33:07;-5.40;99.90
54260;DHT22;40172;53.022;7.012;2022-12-18T09:35:36;-5.40;99.90
54260;DHT22;40172;53.022;7.012;2022-12-18T09:38:02;-5.30;99.90
54260;DHT22;40172;53.022;7.012;2022-12-18T09:40:34;-5.00;99.90
54260;DHT22;40172;53.022;7.012;2022-12-18T09:43:03;-5.00;99.90
54260;DHT22;40172;53.022;7.012;2022-12-18T09:45:33;-4.90;99.90
54260;DHT22;40172;53.022;7.012;2022-12-18T09:48:00;-4.80;99.90
54260;DHT22;40172;53.022;7.012;2022-12-18T09:50:36;-4.60;99.90
54260;DHT22;40172;53.022;7.012;2022-12-18T09:53:06;-4.40;99.90
54260;DHT22;40172;53.022;7.012;2022-12-18T09:55:37;-4.30;99.90
54260;DHT22;40172;53.022;7.012;2022-12-18T10:00:53;-4.20;99.90
54260;DHT22;40172;53.022;7.012;2022-12-18T10:03:19;-4.00;99.90
54260;DHT22;40172;53.022;7.012;2022-12-18T10:06:02;-4.00;99.90
54260;DHT22;40172;53.022;7.012;2022-12-18T10:11:43;-2.90;99.90
54260;DHT22;40172;53.022;7.012;2022-12-18T10:19:29;-4.00;99.90
54260;DHT22;40172;53.022;7.012;2022-12-18T10:22:11;-3.80;99.90
54260;DHT22;40172;53.022;7.012;2022-12-18T10:24:47;-3.80;99.90
54260;DHT22;40172;53.022;7.012;2022-12-18T10:27:18;-3.90;99.90
54260;DHT22;40172;53.022;7.012;2022-12-18T10:29:47;-3.90;99.90
54260;DHT22;40172;53.022;7.012;2022-12-18T10:32:18;-3.80;99.90
54260;DHT22;40172;53.022;7.012;2022-12-18T10:34:49;-3.80;99.90
54260;DHT22;40172;53.022;7.012;2022-12-18T10:37:18;-3.70;99.90
54260;DHT22;40172;53.022;7.012;2022-12-18T10:39:46;-3.50;99.90
54260;DHT22;40172;53.022;7.012;2022-12-18T10:42:19;-3.30;99.90
54260;DHT22;40172;53.022;7.012;2022-12-18T10:44:45;-3.40;99.90
54260;DHT22;40172;53.022;7.012;2022-12-18T10:47:17;-3.40;99.90
54260;DHT22;40172;53.022;7.012;2022-12-18T10:49:52;-3.30;99.90
54260;DHT22;40172;53.022;7.012;2022-12-18T10:52:23;-3.20;99.90
54260;DHT22;40172;53.022;7.012;2022-12-18T10:54:53;-3.30;99.90
54260;DHT22;40172;53.022;7.012;2022-12-18T10:59:57;-3.30;99.90
54260;DHT22;40172;53.022;7.012;2022-12-18T11:02:37;-3.20;99.90
54260;DHT22;40172;53.022;7.012;2022-12-18T11:05:26;-3.20;99.90
54260;DHT22;40172;53.022;7.012;2022-12-18T11:07:52;-3.10;99.90
54260;DHT22;40172;53.022;7.012;2022-12-18T11:10:28;-3.10;99.90
54260;DHT22;40172;53.022;7.012;2022-12-18T11:12:54;-2.90;99.90
54260;DHT22;40172;53.022;7.012;2022-12-18T11:15:28;-2.90;99.90
54260;DHT22;40172;53.022;7.012;2022-12-18T11:17:55;-3.00;99.90
54260;DHT22;40172;53.022;7.012;2022-12-18T11:20:34;-2.90;99.90
54260;DHT22;40172;53.022;7.012;2022-12-18T11:23:02;-2.70;99.90
54260;DHT22;40172;53.022;7.012;2022-12-18T11:25:29;-2.80;99.90
54260;DHT22;40172;53.022;7.012;2022-12-18T11:28:06;-2.70;99.90
54260;DHT22;40172;53.022;7.012;2022-12-18T11:30:41;-2.70;99.90
54260;DHT22;40172;53.022;7.012;2022-12-18T11:33:16;-2.60;99.90
54260;DHT22;40172;53.022;7.012;2022-12-18T11:38:26;-2.50;99.90
54260;DHT22;40172;53.022;7.012;2022-12-18T11:41:05;-2.40;99.90
54260;DHT22;40172;53.022;7.012;2022-12-18T11:44:06;-2.20;99.90
54260;DHT22;40172;53.022;7.012;2022-12-18T11:46:34;-2.40;99.90
54260;DHT22;40172;53.022;7.012;2022-12-18T11:49:11;-2.30;99.90
54260;DHT22;40172;53.022;7.012;2022-12-18T11:51:45;-2.30;99.90
54260;DHT22;40172;53.022;7.012;2022-12-18T11:54:14;-2.10;99.90
54260;DHT22;40172;53.022;7.012;2022-12-18T11:56:51;-2.20;99.90
54260;DHT22;40172;53.022;7.012;2022-12-18T11:59:47;-2.10;99.90
54260;DHT22;40172;53.022;7.012;2022-12-18T12:05:23;-2.10;99.90
54260;DHT22;40172;53.022;7.012;2022-12-18T12:10:41;-2.10;99.90
54260;DHT22;40172;53.022;7.012;2022-12-18T12:13:23;-2.00;99.90
54260;DHT22;40172;53.022;7.012;2022-12-18T12:19:01;-1.80;99.90
54260;DHT22;40172;53.022;7.012;2022-12-18T12:21:39;-1.90;99.90
54260;DHT22;40172;53.022;7.012;2022-12-18T12:27:15;-1.90;99.90
54260;DHT22;40172;53.022;7.012;2022-12-18T12:30:06;-2.00;99.90
54260;DHT22;40172;53.022;7.012;2022-12-18T12:35:38;-1.80;99.90
54260;DHT22;40172;53.022;7.012;2022-12-18T12:40:41;-1.80;99.90
54260;DHT22;40172;53.022;7.012;2022-12-18T12:43:19;-1.80;99.90
54260;DHT22;40172;53.022;7.012;2022-12-18T12:46:00;-1.80;99.90
54260;DHT22;40172;53.022;7.012;2022-12-18T12:48:51;-1.70;99.90
54260;DHT22;40172;53.022;7.012;2022-12-18T12:53:54;-1.70;99.90
54260;DHT22;40172;53.022;7.012;2022-12-18T12:56:21;-1.80;99.90
54260;DHT22;40172;53.022;7.012;2022-12-18T13:01:34;-1.70;99.90
54260;DHT22;40172;53.022;7.012;2022-12-18T13:04:27;-1.70;99.90
54260;DHT22;40172;53.022;7.012;2022-12-18T13:07:04;-1.60;99.90
54260;DHT22;40172;53.022;7.012;2022-12-18T13:09:32;-2.80;99.90
54260;DHT22;40172;53.022;7.012;2022-12-18T13:12:09;-1.70;99.90
54260;DHT22;40172;53.022;7.012;2022-12-18T13:15:13;-1.60;99.90
54260;DHT22;40172;53.022;7.012;2022-12-18T13:17:46;-1.60;99.90
54260;DHT22;40172;53.022;7.012;2022-12-18T13:20:13;-1.70;99.90
54260;DHT22;40172;53.022;7.012;2022-12-18T13:22:44;-1.60;99.90
54260;DHT22;40172;53.022;7.012;2022-12-18T13:25:32;-1.70;99.90
54260;DHT22;40172;53.022;7.012;2022-12-18T13:28:13;-1.70;99.90
54260;DHT22;40172;53.022;7.012;2022-12-18T13:30:43;-1.60;99.90
54260;DHT22;40172;53.022;7.012;2022-12-18T13:36:16;-1.80;99.90
54260;DHT22;40172;53.022;7.012;2022-12-18T13:38:43;-1.60;99.90
54260;DHT22;40172;53.022;7.012;2022-12-18T13:43:46;-1.70;99.90
54260;DHT22;40172;53.022;7.012;2022-12-18T13:46:43;-1.80;99.90
54260;DHT22;40172;53.022;7.012;2022-12-18T13:51:41;-1.70;99.90
54260;DHT22;40172;53.022;7.012;2022-12-18T13:54:30;-1.80;99.90
54260;DHT22;40172;53.022;7.012;2022-12-18T13:56:57;-1.80;99.90
54260;DHT22;40172;53.022;7.012;2022-12-18T13:59:33;-1.90;99.90
54260;DHT22;40172;53.022;7.012;2022-12-18T14:02:05;-1.90;99.90
54260;DHT22;40172;53.022;7.012;2022-12-18T14:04:35;-0.70;99.90
54260;DHT22;40172;53.022;7.012;2022-12-18T14:07:14;-1.90;99.90
54260;DHT22;40172;53.022;7.012;2022-12-18T14:09:46;-2.00;99.90
54260;DHT22;40172;53.022;7.012;2022-12-18T14:12:22;-2.00;99.90
54260;DHT22;40172;53.022;7.012;2022-12-18T14:15:51;-2.00;99.90
54260;DHT22;40172;53.022;7.012;2022-12-18T14:18:43;-2.00;99.90
54260;DHT22;40172;53.022;7.012;2022-12-18T14:21:22;-2.00;99.90
54260;DHT22;40172;53.022;7.012;2022-12-18T14:23:49;-2.20;99.90
54260;DHT22;40172;53.022;7.012;2022-12-18T14:26:28;-2.20;99.90
54260;DHT22;40172;53.022;7.012;2022-12-18T14:28:56;-0.40;99.90
54260;DHT22;40172;53.022;7.012;2022-12-18T14:31:24;-2.20;99.90
54260;DHT22;40172;53.022;7.012;2022-12-18T14:33:51;-2.30;99.90
54260;DHT22;40172;53.022;7.012;2022-12-18T14:36:20;-2.30;99.90
54260;DHT22;40172;53.022;7.012;2022-12-18T14:38:51;-2.40;99.90
54260;DHT22;40172;53.022;7.012;2022-12-18T14:41:18;-1.90;99.90
54260;DHT22;40172;53.022;7.012;2022-12-18T14:43:46;-1.70;99.90
54260;DHT22;40172;53.022;7.012;2022-12-18T14:46:42;-2.40;99.90
54260;DHT22;40172;53.022;7.012;2022-12-18T14:49:29;-2.40;99.90
54260;DHT22;40172;53.022;7.012;2022-12-18T14:52:00;-2.40;99.90
54260;DHT22;40172;53.022;7.012;2022-12-18T14:54:28;-2.60;99.90
54260;DHT22;40172;53.022;7.012;2022-12-18T14:59:39;-2.90;99.90
54260;DHT22;40172;53.022;7.012;2022-12-18T15:02:21;-2.60;99.90
54260;DHT22;40172;53.022;7.012;2022-12-18T15:04:47;-2.50;99.90
54260;DHT22;40172;53.022;7.012;2022-12-18T15:07:17;-2.60;99.90
54260;DHT22;40172;53.022;7.012;2022-12-18T15:10:31;-2.60;99.90
54260;DHT22;40172;53.022;7.012;2022-12-18T15:12:35;-2.50;99.90
54260;DHT22;40172;53.022;7.012;2022-12-18T15:15:01;-2.40;99.90
54260;DHT22;40172;53.022;7.012;2022-12-18T15:17:27;-2.60;99.90
54260;DHT22;40172;53.022;7.012;2022-12-18T15:20:09;-2.60;99.90
54260;DHT22;40172;53.022;7.012;2022-12-18T15:22:36;-2.60;99.90
54260;DHT22;40172;53.022;7.012;2022-12-18T15:25:03;-2.60;99.90
54260;DHT22;40172;53.022;7.012;2022-12-18T15:27:46;-2.60;99.90
54260;DHT22;40172;53.022;7.012;2022-12-18T15:30:20;-2.70;99.90
54260;DHT22;40172;53.022;7.012;2022-12-18T15:32:47;-2.60;99.90
54260;DHT22;40172;53.022;7.012;2022-12-18T15:35:19;-2.70;99.90
54260;DHT22;40172;53.022;7.012;2022-12-18T15:37:44;-1.40;99.90
54260;DHT22;40172;53.022;7.012;2022-12-18T15:40:21;-2.70;99.90
54260;DHT22;40172;53.022;7.012;2022-12-18T15:42:48;-2.60;99.90
54260;DHT22;40172;53.022;7.012;2022-12-18T15:45:33;-2.70;99.90
54260;DHT22;40172;53.022;7.012;2022-12-18T15:47:59;-2.80;99.90
54260;DHT22;40172;53.022;7.012;2022-12-18T15:50:25;-2.60;99.90
54260;DHT22;40172;53.022;7.012;2022-12-18T15:52:52;-2.70;99.90
54260;DHT22;40172;53.022;7.012;2022-12-18T15:55:23;-2.60;99.90
54260;DHT22;40172;53.022;7.012;2022-12-18T15:58:09;-2.60;99.90
54260;DHT22;40172;53.022;7.012;2022-12-18T16:00:36;-2.70;99.90
54260;DHT22;40172;53.022;7.012;2022-12-18T16:03:03;-2.60;99.90
54260;DHT22;40172;53.022;7.012;2022-12-18T16:05:30;-2.70;99.90
54260;DHT22;40172;53.022;7.012;2022-12-18T16:07:56;-1.80;99.90
54260;DHT22;40172;53.022;7.012;2022-12-18T16:10:22;-2.70;99.90
54260;DHT22;40172;53.022;7.012;2022-12-18T16:12:48;-2.60;99.90
54260;DHT22;40172;53.022;7.012;2022-12-18T16:15:14;-2.60;99.90
54260;DHT22;40172;53.022;7.012;2022-12-18T16:17:42;-2.60;99.90
54260;DHT22;40172;53.022;7.012;2022-12-18T16:20:19;-2.60;99.90
54260;DHT22;40172;53.022;7.012;2022-12-18T16:22:49;-2.60;99.90
54260;DHT22;40172;53.022;7.012;2022-12-18T16:25:23;-2.50;99.90
54260;DHT22;40172;53.022;7.012;2022-12-18T16:27:50;-2.30;99.90
54260;DHT22;40172;53.022;7.012;2022-12-18T16:30:22;-2.90;99.90
54260;DHT22;40172;53.022;7.012;2022-12-18T16:32:48;-2.70;99.90
54260;DHT22;40172;53.022;7.012;2022-12-18T16:35:15;-2.50;99.90
54260;DHT22;40172;53.022;7.012;2022-12-18T16:37:42;-2.50;99.90
54260;DHT22;40172;53.022;7.012;2022-12-18T16:40:10;-2.50;99.90
54260;DHT22;40172;53.022;7.012;2022-12-18T16:42:37;-2.40;99.90
54260;DHT22;40172;53.022;7.012;2022-12-18T16:45:04;-2.40;99.90
54260;DHT22;40172;53.022;7.012;2022-12-18T16:47:30;-2.30;99.90
54260;DHT22;40172;53.022;7.012;2022-12-18T16:49:55;-2.30;99.90
54260;DHT22;40172;53.022;7.012;2022-12-18T16:52:21;-2.40;99.90